createdAt,value
2018-06-04T00:00:51.554Z,77.00
2018-06-04T00:03:26.283Z,77.30
2018-06-04T00:06:01.651Z,77.30
2018-06-04T00:08:37.024Z,77.30
2018-06-04T00:11:11.744Z,77.50
2018-06-04T00:13:46.456Z,78.20
2018-06-04T00:16:21.220Z,77.70
2018-06-04T00:18:56.034Z,77.80
2018-06-04T00:21:30.788Z,77.80
2018-06-04T00:24:05.679Z,77.70
2018-06-04T00:26:40.423Z,77.80
2018-06-04T00:29:14.875Z,77.60
2018-06-04T00:31:49.652Z,77.50
2018-06-04T00:34:24.600Z,77.60
2018-06-04T00:36:59.043Z,77.60
2018-06-04T00:39:34.776Z,77.80
2018-06-04T00:42:09.426Z,77.80
2018-06-04T00:44:44.145Z,77.90
2018-06-04T00:49:53.801Z,78.00
2018-06-04T00:52:28.685Z,78.00
2018-06-04T00:55:03.441Z,78.20
2018-06-04T00:57:37.977Z,78.40
2018-06-04T01:00:12.668Z,78.50
2018-06-04T01:02:47.311Z,78.50
2018-06-04T01:05:21.961Z,78.80
2018-06-04T01:07:56.412Z,79.00
2018-06-04T01:10:31.229Z,78.90
2018-06-04T01:13:05.972Z,78.90
2018-06-04T01:15:40.544Z,79.10
2018-06-04T01:18:15.269Z,79.10
2018-06-04T01:20:49.978Z,79.90
2018-06-04T01:23:24.578Z,79.30
2018-06-04T01:25:59.275Z,79.30
2018-06-04T01:28:33.795Z,79.30
2018-06-04T01:31:08.637Z,79.40
2018-06-04T01:33:43.086Z,78.90
2018-06-04T01:36:17.919Z,79.50
2018-06-04T01:38:52.593Z,79.60
2018-06-04T01:41:27.271Z,79.70
2018-06-04T01:44:02.036Z,79.70
2018-06-04T01:46:36.492Z,79.80
2018-06-04T01:49:11.301Z,80.00
2018-06-04T01:51:46.078Z,80.00
2018-06-04T01:54:20.848Z,80.10
2018-06-04T01:56:55.592Z,80.10
2018-06-04T01:59:30.257Z,80.00
2018-06-04T02:02:04.879Z,80.20
2018-06-04T02:04:39.510Z,80.30
2018-06-04T02:07:14.245Z,80.50
2018-06-04T02:09:48.935Z,80.50
2018-06-04T02:12:24.237Z,80.50
2018-06-04T02:14:59.906Z,80.60
2018-06-04T02:17:34.884Z,80.50
2018-06-04T02:20:09.660Z,80.60
2018-06-04T02:22:44.399Z,80.70
2018-06-04T02:25:19.270Z,80.80
2018-06-04T02:27:53.857Z,80.90
2018-06-04T02:30:28.533Z,81.20
2018-06-04T02:33:02.999Z,81.20
2018-06-04T02:35:37.817Z,81.20
2018-06-04T02:38:12.651Z,81.10
2018-06-04T02:40:47.403Z,81.10
2018-06-04T02:43:23.031Z,81.10
2018-06-04T02:45:58.040Z,81.10
2018-06-04T02:48:32.938Z,81.00
2018-06-04T02:51:07.918Z,81.70
2018-06-04T02:53:42.693Z,81.10
2018-06-04T02:56:17.528Z,81.30
2018-06-04T02:58:53.223Z,81.30
2018-06-04T03:01:27.990Z,81.40
2018-06-04T03:04:03.108Z,81.40
2018-06-04T03:06:37.933Z,81.60
2018-06-04T03:09:12.596Z,81.60
2018-06-04T03:11:47.149Z,81.60
2018-06-04T03:14:21.938Z,81.50
2018-06-04T03:16:56.897Z,81.60
2018-06-04T03:19:31.300Z,81.50
2018-06-04T03:22:06.057Z,81.60
2018-06-04T03:24:40.787Z,81.60
2018-06-04T03:27:15.484Z,81.60
2018-06-04T03:29:50.061Z,81.50
2018-06-04T03:32:25.113Z,81.50
2018-06-04T03:34:59.217Z,81.70
2018-06-04T03:37:34.026Z,81.60
2018-06-04T03:40:08.741Z,81.60
2018-06-04T03:42:43.412Z,81.70
2018-06-04T03:45:18.231Z,81.80
2018-06-04T03:47:52.738Z,81.80
2018-06-04T03:50:28.023Z,81.80
2018-06-04T03:53:02.318Z,81.90
2018-06-04T03:55:37.048Z,81.90
2018-06-04T03:58:12.695Z,81.90
2018-06-04T04:00:47.291Z,81.90
2018-06-04T04:03:22.038Z,81.90
2018-06-04T04:05:56.625Z,81.90
2018-06-04T04:08:31.390Z,81.90
2018-06-04T04:11:06.018Z,81.80
2018-06-04T04:13:40.650Z,81.70
2018-06-04T04:16:15.285Z,81.60
2018-06-04T04:18:49.960Z,81.60
2018-06-04T04:21:24.731Z,81.70
2018-06-04T04:23:59.242Z,81.90
2018-06-04T04:26:33.945Z,82.10
2018-06-04T04:29:08.398Z,81.90
2018-06-04T04:31:43.297Z,82.10
2018-06-04T04:34:17.817Z,81.70
2018-06-04T04:36:52.828Z,81.40
2018-06-04T04:39:27.473Z,81.60
2018-06-04T04:42:02.126Z,81.30
2018-06-04T04:44:36.853Z,80.80
2018-06-04T04:47:11.563Z,80.40
2018-06-04T04:49:46.166Z,80.70
2018-06-04T04:52:20.945Z,80.90
2018-06-04T04:54:56.155Z,80.60
2018-06-04T04:57:30.426Z,79.70
2018-06-04T05:00:05.119Z,79.20
2018-06-04T05:02:39.591Z,78.60
2018-06-04T05:05:14.345Z,78.30
2018-06-04T05:07:49.159Z,78.00
2018-06-04T05:10:23.870Z,77.60
2018-06-04T05:12:58.646Z,76.70
2018-06-04T05:15:33.592Z,76.00
2018-06-04T05:18:08.354Z,75.60
2018-06-04T05:20:43.105Z,74.30
2018-06-04T05:23:18.015Z,71.60
2018-06-04T05:25:52.314Z,70.30
2018-06-04T05:28:27.179Z,70.40
2018-06-04T05:31:01.950Z,70.20
2018-06-04T05:33:36.713Z,67.80
2018-06-04T05:36:11.451Z,66.70
2018-06-04T05:38:46.731Z,62.70
2018-06-04T05:41:20.966Z,59.00
2018-06-04T05:43:55.816Z,55.10
2018-06-04T05:46:30.547Z,53.70
2018-06-04T05:49:05.383Z,53.00
2018-06-04T05:51:39.877Z,51.40
2018-06-04T05:56:49.030Z,49.50
2018-06-04T05:59:23.762Z,49.50
2018-06-04T06:01:58.327Z,49.00
2018-06-04T06:04:33.044Z,49.40
2018-06-04T06:07:07.639Z,48.70
2018-06-04T06:09:42.405Z,48.90
2018-06-04T06:12:17.163Z,49.00
2018-06-04T06:14:51.902Z,48.20
2018-06-04T06:17:26.538Z,47.80
2018-06-04T06:20:01.231Z,47.30
2018-06-04T06:22:35.889Z,46.10
2018-06-04T06:25:10.539Z,44.50
2018-06-04T06:27:45.375Z,44.90
2018-06-04T06:30:20.069Z,43.60
2018-06-04T06:32:54.895Z,43.10
2018-06-04T06:35:29.662Z,43.30
2018-06-04T06:38:04.312Z,42.00
2018-06-04T06:40:39.162Z,42.00
2018-06-04T06:43:13.814Z,42.90
2018-06-04T06:45:48.566Z,42.20
2018-06-04T06:48:23.270Z,42.00
2018-06-04T06:50:58.053Z,43.20
2018-06-04T06:56:07.236Z,42.80
2018-06-04T06:58:41.893Z,43.10
2018-06-04T07:01:16.559Z,43.30
2018-06-04T07:03:51.098Z,43.30
2018-06-04T07:06:25.685Z,42.50
2018-06-04T07:09:00.326Z,43.30
2018-06-04T07:11:34.891Z,43.30
2018-06-04T07:14:09.611Z,42.70
2018-06-04T07:16:44.283Z,43.30
2018-06-04T07:19:19.040Z,43.50
2018-06-04T07:21:53.933Z,43.30
2018-06-04T07:24:28.497Z,43.30
2018-06-04T07:27:03.389Z,43.40
2018-06-04T07:29:37.862Z,43.30
2018-06-04T07:32:12.620Z,43.40
2018-06-04T07:34:47.317Z,44.00
2018-06-04T07:37:22.119Z,44.10
2018-06-04T07:39:56.737Z,43.80
2018-06-04T07:42:31.327Z,43.30
2018-06-04T07:45:06.255Z,45.00
2018-06-04T07:47:40.683Z,44.80
2018-06-04T07:50:16.320Z,43.80
2018-06-04T07:52:51.416Z,45.00
2018-06-04T07:55:26.268Z,45.70
2018-06-04T07:58:00.961Z,44.60
2018-06-04T08:00:35.570Z,44.60
2018-06-04T08:03:10.036Z,44.90
2018-06-04T08:05:44.497Z,43.40
2018-06-04T08:08:19.158Z,44.00
2018-06-04T08:10:53.932Z,44.30
2018-06-04T08:13:28.771Z,45.10
2018-06-04T08:16:03.366Z,46.60
2018-06-04T08:18:38.033Z,44.90
2018-06-04T08:21:12.831Z,44.80
2018-06-04T08:23:47.663Z,45.80
2018-06-04T08:26:22.291Z,44.40
2018-06-04T08:28:57.079Z,44.30
2018-06-04T08:31:31.961Z,44.50
2018-06-04T08:34:06.627Z,45.00
2018-06-04T08:36:41.209Z,44.40
2018-06-04T08:39:16.158Z,44.00
2018-06-04T08:41:50.765Z,43.30
2018-06-04T08:44:25.397Z,44.10
2018-06-04T08:47:00.013Z,44.20
2018-06-04T08:49:34.953Z,42.50
2018-06-04T08:52:09.249Z,42.50
2018-06-04T08:54:43.950Z,43.60
2018-06-04T08:57:18.505Z,41.80
2018-06-04T08:59:53.387Z,42.60
2018-06-04T09:02:28.344Z,42.30
2018-06-04T09:05:03.120Z,40.70
2018-06-04T09:07:37.687Z,41.00
2018-06-04T09:10:12.354Z,40.60
2018-06-04T09:12:47.027Z,41.40
2018-06-04T09:15:22.776Z,41.40
2018-06-04T09:17:57.475Z,39.70
2018-06-04T09:20:32.938Z,38.40
2018-06-04T09:23:08.066Z,38.90
2018-06-04T09:25:42.825Z,40.30
2018-06-04T09:28:17.432Z,39.60
2018-06-04T09:30:52.324Z,37.20
2018-06-04T09:33:26.987Z,38.30
2018-06-04T09:36:02.225Z,37.80
2018-06-04T09:38:36.647Z,39.10
2018-06-04T09:41:11.360Z,37.10
2018-06-04T09:43:46.117Z,36.50
2018-06-04T09:46:20.735Z,39.10
2018-06-04T09:48:55.409Z,39.50
2018-06-04T09:51:30.169Z,40.30
2018-06-04T09:54:04.902Z,42.10
2018-06-04T09:59:14.254Z,36.50
2018-06-04T10:01:49.161Z,36.90
2018-06-04T10:04:23.595Z,36.10
2018-06-04T10:06:58.266Z,36.90
2018-06-04T10:09:32.725Z,36.40
2018-06-04T10:12:07.394Z,38.30
2018-06-04T10:14:41.969Z,36.70
2018-06-04T10:17:16.782Z,36.30
2018-06-04T10:19:51.251Z,35.30
2018-06-04T10:22:25.918Z,36.60
2018-06-04T10:25:00.609Z,36.30
2018-06-04T10:27:35.219Z,38.20
2018-06-04T10:30:10.538Z,36.70
2018-06-04T10:32:45.396Z,37.90
2018-06-04T10:35:20.137Z,37.70
2018-06-04T10:37:54.801Z,38.00
2018-06-04T10:40:29.417Z,39.00
2018-06-04T10:43:05.120Z,37.90
2018-06-04T10:45:39.782Z,39.10
2018-06-04T10:48:14.710Z,36.90
2018-06-04T10:50:49.574Z,38.80
2018-06-04T10:53:24.079Z,39.30
2018-06-04T10:55:58.931Z,39.10
2018-06-04T10:58:33.730Z,38.40
2018-06-04T11:01:08.531Z,38.60
2018-06-04T11:03:43.398Z,38.80
2018-06-04T11:06:17.768Z,38.00
2018-06-04T11:08:52.462Z,38.90
2018-06-04T11:11:27.307Z,39.10
2018-06-04T11:14:01.973Z,39.90
2018-06-04T11:16:36.608Z,38.90
2018-06-04T11:19:11.367Z,40.00
2018-06-04T11:21:46.043Z,39.70
2018-06-04T11:24:20.881Z,41.50
2018-06-04T11:26:55.545Z,42.30
2018-06-04T11:29:30.037Z,42.90
2018-06-04T11:32:04.693Z,42.20
2018-06-04T11:34:39.463Z,42.10
2018-06-04T11:37:14.097Z,43.20
2018-06-04T11:39:48.979Z,43.30
2018-06-04T11:42:23.501Z,41.90
2018-06-04T11:44:58.274Z,42.80
2018-06-04T11:47:32.973Z,43.30
2018-06-04T11:50:07.488Z,42.60
2018-06-04T11:52:42.059Z,42.50
2018-06-04T11:55:16.734Z,42.20
2018-06-04T11:57:51.718Z,43.00
2018-06-04T12:00:26.183Z,43.70
2018-06-04T12:03:01.229Z,44.60
2018-06-04T12:05:36.392Z,44.40
2018-06-04T12:08:10.882Z,43.60
2018-06-04T12:10:45.815Z,44.30
2018-06-04T12:13:20.465Z,44.80
2018-06-04T12:15:55.110Z,42.90
2018-06-04T12:18:29.737Z,43.50
2018-06-04T12:21:04.300Z,43.80
2018-06-04T12:23:38.859Z,44.40
2018-06-04T12:26:13.471Z,44.50
2018-06-04T12:31:22.877Z,44.10
2018-06-04T12:33:57.892Z,44.20
2018-06-04T12:36:32.506Z,44.00
2018-06-04T12:39:08.738Z,43.50
2018-06-04T12:41:43.939Z,43.90
2018-06-04T12:44:18.421Z,43.00
2018-06-04T12:46:53.253Z,42.40
2018-06-04T12:49:27.959Z,42.70
2018-06-04T12:52:02.778Z,42.90
2018-06-04T12:54:37.462Z,42.40
2018-06-04T12:57:12.216Z,42.60
2018-06-04T12:59:47.149Z,42.70
2018-06-04T13:02:21.788Z,43.70
2018-06-04T13:04:56.368Z,44.00
2018-06-04T13:07:31.189Z,44.00
2018-06-04T13:10:05.864Z,43.10
2018-06-04T13:12:40.339Z,42.10
2018-06-04T13:15:15.307Z,42.40
2018-06-04T13:17:49.946Z,41.90
2018-06-04T13:20:24.727Z,42.20
2018-06-04T13:22:59.335Z,41.80
2018-06-04T13:25:33.928Z,41.20
2018-06-04T13:28:08.734Z,41.20
2018-06-04T13:30:43.267Z,42.00
2018-06-04T13:33:18.174Z,40.10
2018-06-04T13:35:52.591Z,39.40
2018-06-04T13:38:27.119Z,39.70
2018-06-04T13:41:01.875Z,38.70
2018-06-04T13:43:36.443Z,39.00
2018-06-04T13:46:11.222Z,40.10
2018-06-04T13:48:45.909Z,41.30
2018-06-04T13:51:20.554Z,42.20
2018-06-04T13:53:55.195Z,43.00
2018-06-04T13:56:30.025Z,43.00
2018-06-04T13:59:04.832Z,42.20
2018-06-04T14:01:39.432Z,42.30
2018-06-04T14:04:14.071Z,42.20
2018-06-04T14:06:48.840Z,41.30
2018-06-04T14:09:23.624Z,42.50
2018-06-04T14:11:58.090Z,43.50
2018-06-04T14:14:33.311Z,43.80
2018-06-04T14:17:08.384Z,43.60
2018-06-04T14:19:49.940Z,42.80
2018-06-04T14:22:25.158Z,42.90
2018-06-04T14:24:59.946Z,43.30
2018-06-04T14:27:34.428Z,43.40
2018-06-04T14:30:10.489Z,43.60
2018-06-04T14:32:44.854Z,42.70
2018-06-04T14:35:19.526Z,43.40
2018-06-04T14:37:54.264Z,44.10
2018-06-04T14:40:28.964Z,43.40
2018-06-04T14:43:03.575Z,44.30
2018-06-04T14:45:38.408Z,43.80
2018-06-04T14:48:14.177Z,43.50
2018-06-04T14:50:48.607Z,42.70
2018-06-04T14:53:23.444Z,42.90
2018-06-04T14:55:58.037Z,43.10
2018-06-04T14:58:32.896Z,44.20
2018-06-04T15:01:07.612Z,43.90
2018-06-04T15:03:42.193Z,44.40
2018-06-04T15:06:16.670Z,45.60
2018-06-04T15:08:51.401Z,44.80
2018-06-04T15:11:26.600Z,44.90
2018-06-04T15:14:01.052Z,44.80
2018-06-04T15:16:35.421Z,44.90
2018-06-04T15:19:09.964Z,44.70
2018-06-04T15:21:44.677Z,45.40
2018-06-04T15:24:19.375Z,45.50
2018-06-04T15:26:53.913Z,45.80
2018-06-04T15:29:28.544Z,46.10
2018-06-04T15:32:03.496Z,45.20
2018-06-04T15:34:37.893Z,44.60
2018-06-04T15:37:12.719Z,44.80
2018-06-04T15:39:47.200Z,45.40
2018-06-04T15:42:21.897Z,45.80
2018-06-04T15:44:56.772Z,46.10
2018-06-04T15:47:31.419Z,45.70
2018-06-04T15:50:06.016Z,45.90
2018-06-04T15:52:41.492Z,46.20
2018-06-04T15:55:16.502Z,44.80
2018-06-04T15:57:51.347Z,45.00
2018-06-04T16:00:26.902Z,45.30
2018-06-04T16:03:01.492Z,44.50
2018-06-04T16:05:36.285Z,45.40
2018-06-04T16:08:10.944Z,44.70
2018-06-04T16:10:46.400Z,44.50
2018-06-04T16:13:21.038Z,44.30
2018-06-04T16:15:56.399Z,44.30
2018-06-04T16:18:31.692Z,43.80
2018-06-04T16:21:06.743Z,43.40
2018-06-04T16:23:41.734Z,43.70
2018-06-04T16:26:17.028Z,44.00
2018-06-04T16:28:52.226Z,43.50
2018-06-04T16:31:26.610Z,42.70
2018-06-04T16:34:01.436Z,42.80
2018-06-04T16:36:36.136Z,42.60
2018-06-04T16:39:10.642Z,42.60
2018-06-04T16:41:45.294Z,43.30
2018-06-04T16:44:19.878Z,42.80
2018-06-04T16:46:54.804Z,42.70
2018-06-04T16:49:29.173Z,40.90
2018-06-04T16:52:03.846Z,40.90
2018-06-04T16:54:38.619Z,40.90
2018-06-04T16:57:13.414Z,40.80
2018-06-04T16:59:48.309Z,41.90
2018-06-04T17:02:22.930Z,40.80
2018-06-04T17:04:57.802Z,40.80
2018-06-04T17:07:32.753Z,41.00
2018-06-04T17:10:07.142Z,40.30
2018-06-04T17:12:41.663Z,40.70
2018-06-04T17:15:17.516Z,41.20
2018-06-04T17:17:52.420Z,40.20
2018-06-04T17:20:27.741Z,40.70
2018-06-04T17:23:02.801Z,40.70
2018-06-04T17:25:38.326Z,41.40
2018-06-04T17:28:12.833Z,40.50
2018-06-04T17:30:47.332Z,40.70
2018-06-04T17:33:21.875Z,40.70
2018-06-04T17:35:57.030Z,40.70
2018-06-04T17:38:34.442Z,40.70
2018-06-04T17:41:09.712Z,41.10
2018-06-04T17:43:44.531Z,41.40
2018-06-04T17:46:20.849Z,41.70
2018-06-04T17:48:55.804Z,42.20
2018-06-04T17:51:31.945Z,42.60
2018-06-04T17:54:07.349Z,42.90
2018-06-04T17:56:43.595Z,43.10
2018-06-04T17:59:18.708Z,43.30
2018-06-04T18:01:54.621Z,43.40
2018-06-04T18:04:29.878Z,44.00
2018-06-04T18:07:04.088Z,44.80
2018-06-04T18:09:38.581Z,45.20
2018-06-04T18:12:13.257Z,45.70
2018-06-04T18:14:48.224Z,46.00
2018-06-04T18:17:22.877Z,46.50
2018-06-04T18:19:57.441Z,46.90
2018-06-04T18:22:32.089Z,47.30
2018-06-04T18:25:06.755Z,47.60
2018-06-04T18:27:41.552Z,48.20
2018-06-04T18:30:16.210Z,48.30
2018-06-04T18:32:51.000Z,48.70
2018-06-04T18:35:25.967Z,48.70
2018-06-04T18:38:00.851Z,49.30
2018-06-04T18:40:35.691Z,49.60
2018-06-04T18:43:10.269Z,49.80
2018-06-04T18:45:45.158Z,50.10
2018-06-04T18:48:20.039Z,50.30
2018-06-04T18:50:55.039Z,51.10
2018-06-04T18:53:29.522Z,50.70
2018-06-04T18:56:04.038Z,50.80
2018-06-04T18:58:38.897Z,51.00
2018-06-04T19:01:13.611Z,51.50
2018-06-04T19:03:48.951Z,51.50
2018-06-04T19:06:23.821Z,51.80
2018-06-04T19:08:58.143Z,52.50
2018-06-04T19:11:32.817Z,52.40
2018-06-04T19:14:07.714Z,52.30
2018-06-04T19:16:42.041Z,52.30
2018-06-04T19:19:16.731Z,52.30
2018-06-04T19:21:51.528Z,52.60
2018-06-04T19:24:26.071Z,52.60
2018-06-04T19:27:00.772Z,53.30
2018-06-04T19:29:35.384Z,53.50
2018-06-04T19:32:10.175Z,54.30
2018-06-04T19:34:44.316Z,53.50
2018-06-04T19:37:19.198Z,53.30
2018-06-04T19:39:53.549Z,53.80
2018-06-04T19:42:28.240Z,54.40
2018-06-04T19:45:04.945Z,54.80
2018-06-04T19:47:40.124Z,54.60
2018-06-04T19:50:14.992Z,54.80
2018-06-04T19:52:51.583Z,55.20
2018-06-04T19:55:27.248Z,55.50
2018-06-04T19:58:02.740Z,56.60
2018-06-04T20:00:37.091Z,55.60
2018-06-04T20:03:11.632Z,56.90
2018-06-04T20:05:46.274Z,57.40
2018-06-04T20:08:21.050Z,57.40
2018-06-04T20:10:55.669Z,57.70
2018-06-04T20:13:30.471Z,57.60
2018-06-04T20:16:05.240Z,57.30
2018-06-04T20:18:40.668Z,57.60
2018-06-04T20:21:15.347Z,58.30
2018-06-04T20:23:50.245Z,58.40
2018-06-04T20:26:24.682Z,59.00
2018-06-04T20:28:59.368Z,59.90
2018-06-04T20:31:33.885Z,58.90
2018-06-04T20:34:08.643Z,59.40
2018-06-04T20:36:43.076Z,59.40
2018-06-04T20:39:17.680Z,58.20
2018-06-04T20:41:52.426Z,58.00
2018-06-04T20:44:27.137Z,58.50
2018-06-04T20:47:02.229Z,59.00
2018-06-04T20:49:36.600Z,59.50
2018-06-04T20:52:11.125Z,59.50
2018-06-04T20:54:45.672Z,59.60
2018-06-04T20:57:20.401Z,57.70
2018-06-04T20:59:54.881Z,58.80
2018-06-04T21:02:29.490Z,58.10
2018-06-04T21:05:04.273Z,58.80
2018-06-04T21:07:39.024Z,58.70
2018-06-04T21:10:13.884Z,59.20
2018-06-04T21:12:48.634Z,59.50
2018-06-04T21:15:23.339Z,59.60
2018-06-04T21:17:58.167Z,59.60
2018-06-04T21:20:32.698Z,60.40
2018-06-04T21:23:07.456Z,60.00
2018-06-04T21:25:42.081Z,59.50
2018-06-04T21:28:16.910Z,60.00
2018-06-04T21:30:51.733Z,59.90
2018-06-04T21:33:26.326Z,60.00
2018-06-04T21:36:00.907Z,59.90
2018-06-04T21:38:35.728Z,60.40
2018-06-04T21:41:10.429Z,60.30
2018-06-04T21:43:44.972Z,60.20
2018-06-04T21:46:19.789Z,59.90
2018-06-04T21:48:54.290Z,59.70
2018-06-04T21:51:29.098Z,60.40
2018-06-04T21:54:03.793Z,60.80
2018-06-04T21:56:38.637Z,60.90
2018-06-04T21:59:13.540Z,60.90
2018-06-04T22:01:48.129Z,61.70
2018-06-04T22:04:22.745Z,61.60
2018-06-04T22:06:57.633Z,61.60
2018-06-04T22:09:32.358Z,62.00
2018-06-04T22:12:06.941Z,62.20
2018-06-04T22:14:41.529Z,62.50
2018-06-04T22:17:16.186Z,63.00
2018-06-04T22:19:50.915Z,63.40
2018-06-04T22:22:25.434Z,63.50
2018-06-04T22:24:59.982Z,63.80
2018-06-04T22:27:34.435Z,64.20
2018-06-04T22:30:08.897Z,64.50
2018-06-04T22:32:43.637Z,64.90
2018-06-04T22:35:18.520Z,65.30
2018-06-04T22:37:52.976Z,65.30
2018-06-04T22:40:27.681Z,65.40
2018-06-04T22:43:02.828Z,65.40
2018-06-04T22:45:37.073Z,65.70
2018-06-04T22:48:11.754Z,65.60
2018-06-04T22:50:46.358Z,66.00
2018-06-04T22:53:20.996Z,66.20
2018-06-04T22:55:55.555Z,66.00
2018-06-04T22:58:30.859Z,66.00
2018-06-04T23:01:05.042Z,65.70
2018-06-04T23:03:39.868Z,66.00
2018-06-04T23:06:14.717Z,66.20
2018-06-04T23:08:49.407Z,66.30
2018-06-04T23:11:24.098Z,66.50
2018-06-04T23:13:59.002Z,67.00
2018-06-04T23:16:33.801Z,67.10
2018-06-04T23:19:08.278Z,67.30
2018-06-04T23:21:43.154Z,67.20
2018-06-04T23:24:17.998Z,67.40
2018-06-04T23:26:52.613Z,67.40
2018-06-04T23:29:27.428Z,67.60
2018-06-04T23:32:02.041Z,67.70
2018-06-04T23:34:36.755Z,67.90
2018-06-04T23:37:11.371Z,67.90
2018-06-04T23:39:45.978Z,68.00
2018-06-04T23:42:20.620Z,68.10
